createdAt,value
2023-01-19T00:03:28.652Z,17.95
2023-01-19T00:08:31.224Z,16.38
2023-01-19T00:13:33.858Z,16.27
2023-01-19T00:18:36.402Z,14.75
2023-01-19T00:23:39.171Z,14.48
2023-01-19T00:28:42.438Z,15.73
2023-01-19T00:33:48.900Z,13.13
2023-01-19T00:38:51.532Z,14.23
2023-01-19T00:43:54.135Z,13.10
2023-01-19T00:48:56.681Z,12.30
2023-01-19T00:54:05.072Z,13.65
2023-01-19T00:59:07.737Z,13.38
2023-01-19T01:04:12.274Z,14.43
2023-01-19T01:09:14.848Z,13.57
2023-01-19T01:14:17.717Z,14.27
2023-01-19T01:19:21.488Z,12.80
2023-01-19T01:24:24.198Z,13.85
2023-01-19T01:29:26.828Z,15.20
2023-01-19T01:34:29.403Z,15.15
2023-01-19T01:39:31.953Z,13.50
2023-01-19T01:44:51.725Z,15.13
2023-01-19T01:50:00.725Z,16.05
2023-01-19T01:55:07.239Z,14.65
2023-01-19T02:00:11.341Z,14.35
2023-01-19T02:05:19.247Z,14.95
2023-01-19T02:10:40.266Z,14.85
2023-01-19T02:15:42.818Z,14.10
2023-01-19T02:21:07.652Z,14.10
2023-01-19T02:26:14.312Z,13.88
2023-01-19T02:31:17.805Z,13.55
2023-01-19T02:36:26.017Z,12.85
2023-01-19T02:41:34.649Z,13.50
2023-01-19T02:46:38.451Z,14.80
2023-01-19T02:51:44.216Z,16.10
2023-01-19T02:56:53.246Z,15.13
2023-01-19T03:02:23.367Z,15.88
2023-01-19T03:07:47.096Z,14.43
2023-01-19T03:13:22.705Z,14.68
2023-01-19T03:18:29.809Z,15.10
2023-01-19T03:23:34.806Z,15.35
2023-01-19T03:28:40.280Z,14.80
2023-01-19T03:33:49.522Z,14.80
2023-01-19T03:38:53.535Z,15.27
2023-01-19T03:43:57.859Z,14.02
2023-01-19T03:49:00.784Z,13.18
2023-01-19T03:54:05.679Z,13.88
2023-01-19T03:59:08.251Z,12.82
2023-01-19T04:04:10.805Z,14.02
2023-01-19T04:09:13.626Z,12.98
2023-01-19T04:14:16.211Z,13.25
2023-01-19T04:19:18.865Z,12.18
2023-01-19T04:24:22.113Z,13.63
2023-01-19T04:29:25.316Z,13.43
2023-01-19T04:34:27.941Z,12.77
2023-01-19T04:39:31.110Z,13.65
2023-01-19T04:44:33.819Z,12.85
2023-01-19T04:49:39.367Z,14.05
2023-01-19T04:54:41.924Z,13.20
2023-01-19T04:59:44.620Z,13.82
2023-01-19T05:04:47.150Z,13.70
2023-01-19T05:09:49.816Z,13.57
2023-01-19T05:14:52.384Z,13.70
2023-01-19T05:19:54.985Z,14.57
2023-01-19T05:24:58.113Z,13.65
2023-01-19T05:30:05.046Z,14.45
2023-01-19T05:35:08.248Z,13.45
2023-01-19T05:40:11.715Z,13.70
2023-01-19T05:45:15.553Z,15.10
2023-01-19T05:50:18.160Z,20.10
2023-01-19T05:55:21.198Z,23.65
2023-01-19T06:00:24.680Z,24.67
2023-01-19T06:05:27.520Z,23.70
2023-01-19T06:10:30.108Z,19.73
2023-01-19T06:15:32.672Z,24.77
2023-01-19T06:20:36.444Z,20.15
2023-01-19T06:25:39.257Z,18.85
2023-01-19T06:30:41.895Z,17.23
2023-01-19T06:35:48.882Z,17.25
2023-01-19T06:41:02.838Z,14.63
2023-01-19T06:46:06.158Z,14.98
2023-01-19T06:51:08.689Z,15.13
2023-01-19T06:56:11.374Z,16.05
2023-01-19T07:01:14.498Z,15.70
2023-01-19T07:06:17.081Z,15.43
2023-01-19T07:11:24.773Z,15.48
2023-01-19T07:16:32.707Z,15.27
2023-01-19T07:21:35.326Z,15.40
2023-01-19T07:26:37.954Z,16.35
2023-01-19T07:31:40.544Z,15.55
2023-01-19T07:36:44.173Z,17.98
2023-01-19T07:41:48.815Z,15.90
2023-01-19T07:46:51.439Z,16.42
2023-01-19T07:51:56.380Z,17.23
2023-01-19T07:57:00.702Z,17.10
2023-01-19T08:02:03.488Z,15.88
2023-01-19T08:07:07.743Z,15.43
2023-01-19T08:12:10.290Z,17.35
2023-01-19T08:17:14.108Z,16.50
2023-01-19T08:22:16.769Z,16.48
2023-01-19T08:27:19.281Z,16.38
2023-01-19T08:32:21.886Z,17.65
2023-01-19T08:37:24.906Z,17.60
2023-01-19T08:42:28.193Z,17.58
2023-01-19T08:47:30.831Z,17.52
2023-01-19T08:52:33.467Z,15.82
2023-01-19T08:57:36.183Z,16.40
2023-01-19T09:02:38.768Z,17.90
2023-01-19T09:07:41.860Z,16.48
2023-01-19T09:12:45.144Z,17.23
2023-01-19T09:17:47.742Z,16.95
2023-01-19T09:22:50.401Z,17.88
2023-01-19T09:27:53.211Z,16.60
2023-01-19T09:32:55.771Z,17.13
2023-01-19T09:37:59.204Z,17.88
2023-01-19T09:43:22.801Z,17.77
2023-01-19T09:48:57.904Z,16.45
2023-01-19T09:54:06.570Z,18.00
2023-01-19T09:59:30.392Z,19.85
2023-01-19T10:04:54.641Z,17.65
2023-01-19T10:10:03.226Z,19.15
2023-01-19T10:15:37.744Z,19.17
2023-01-19T10:21:11.973Z,18.95
2023-01-19T10:26:23.503Z,18.20
2023-01-19T10:31:26.219Z,19.17
2023-01-19T10:36:39.966Z,18.60
2023-01-19T10:41:53.739Z,19.88
2023-01-19T10:46:58.834Z,18.08
2023-01-19T10:52:02.563Z,19.45
2023-01-19T10:57:09.280Z,21.30
2023-01-19T11:02:31.674Z,20.38
2023-01-19T11:07:35.142Z,21.85
2023-01-19T11:12:45.987Z,21.42
2023-01-19T11:17:50.433Z,19.25
2023-01-19T11:23:05.704Z,20.65
2023-01-19T11:28:20.843Z,22.10
2023-01-19T11:33:50.576Z,21.95
2023-01-19T11:38:56.137Z,22.02
2023-01-19T11:44:12.115Z,23.70
2023-01-19T11:49:27.539Z,23.30
2023-01-19T11:54:36.137Z,25.27
2023-01-19T11:59:38.701Z,25.70
2023-01-19T12:04:44.586Z,25.83
2023-01-19T12:09:53.178Z,25.80
2023-01-19T12:15:08.786Z,24.15
2023-01-19T12:20:35.599Z,24.00
2023-01-19T12:25:53.952Z,23.52
2023-01-19T12:30:59.748Z,24.75
2023-01-19T12:36:17.395Z,23.50
2023-01-19T12:41:19.864Z,22.27
2023-01-19T12:46:30.299Z,23.50
2023-01-19T12:51:33.409Z,22.83
2023-01-19T12:56:38.676Z,21.92
2023-01-19T13:01:41.315Z,23.30
2023-01-19T13:06:49.897Z,22.55
2023-01-19T13:12:21.397Z,21.65
2023-01-19T13:17:28.556Z,21.13
2023-01-19T13:22:51.378Z,21.58
2023-01-19T13:27:57.088Z,22.58
2023-01-19T13:33:19.770Z,23.33
2023-01-19T13:38:24.333Z,23.92
2023-01-19T13:43:36.662Z,23.35
2023-01-19T13:48:39.746Z,23.85
2023-01-19T13:53:53.973Z,23.23
2023-01-19T13:59:12.733Z,23.02
2023-01-19T14:04:32.676Z,23.73
2023-01-19T14:09:35.908Z,22.92
2023-01-19T14:14:38.875Z,24.40
2023-01-19T14:19:51.910Z,24.75
2023-01-19T14:24:54.605Z,24.52
2023-01-19T14:30:21.494Z,24.33
2023-01-19T14:35:25.850Z,26.42
2023-01-19T14:40:29.768Z,26.05
2023-01-19T14:45:43.291Z,24.63
2023-01-19T14:51:02.038Z,24.65
2023-01-19T14:56:06.908Z,23.25
2023-01-19T15:01:09.604Z,22.55
2023-01-19T15:06:15.659Z,22.05
2023-01-19T15:11:22.277Z,22.65
2023-01-19T15:16:27.490Z,22.48
2023-01-19T15:21:30.209Z,25.75
2023-01-19T15:26:33.061Z,21.55
2023-01-19T15:31:36.154Z,20.52
2023-01-19T15:36:38.913Z,21.15
2023-01-19T15:41:41.576Z,20.90
2023-01-19T15:46:44.328Z,18.45
2023-01-19T15:51:46.885Z,18.90
2023-01-19T15:56:49.540Z,19.30
2023-01-19T16:01:52.588Z,19.80
2023-01-19T16:06:55.232Z,19.50
2023-01-19T16:11:57.838Z,20.30
2023-01-19T16:17:01.833Z,18.15
2023-01-19T16:22:05.690Z,18.15
2023-01-19T16:27:08.995Z,16.58
2023-01-19T16:32:11.600Z,14.45
2023-01-19T16:37:14.326Z,17.33
2023-01-19T16:42:17.065Z,16.67
2023-01-19T16:47:19.626Z,15.15
2023-01-19T16:52:24.872Z,16.02
2023-01-19T16:57:27.398Z,16.05
2023-01-19T17:02:30.096Z,18.25
2023-01-19T17:07:32.740Z,18.48
2023-01-19T17:12:35.324Z,17.88
2023-01-19T17:17:38.142Z,17.27
2023-01-19T17:22:40.860Z,15.65
2023-01-19T17:27:43.390Z,16.20
2023-01-19T17:32:46.063Z,17.13
2023-01-19T17:37:48.743Z,17.90
2023-01-19T17:42:51.506Z,21.75
2023-01-19T17:47:54.044Z,20.40
2023-01-19T17:52:56.701Z,21.42
2023-01-19T17:58:00.425Z,21.27
2023-01-19T18:03:04.167Z,22.15
2023-01-19T18:08:06.850Z,21.80
2023-01-19T18:13:09.364Z,22.75
2023-01-19T18:18:11.973Z,31.65
2023-01-19T18:23:14.630Z,23.90
2023-01-19T18:28:17.259Z,23.33
2023-01-19T18:33:20.218Z,26.23
2023-01-19T18:38:22.821Z,25.95
2023-01-19T18:43:25.502Z,27.25
2023-01-19T18:48:28.061Z,26.58
2023-01-19T18:53:31.626Z,27.20
2023-01-19T18:58:37.139Z,28.08
2023-01-19T19:03:39.766Z,29.75
2023-01-19T19:08:44.228Z,29.60
2023-01-19T19:13:50.942Z,29.10
2023-01-19T19:18:53.666Z,33.30
2023-01-19T19:23:58.622Z,31.05
2023-01-19T19:29:01.784Z,32.35
2023-01-19T19:34:04.531Z,32.55
2023-01-19T19:39:07.094Z,33.22
2023-01-19T19:44:15.558Z,32.88
2023-01-19T19:49:21.470Z,33.63
2023-01-19T19:54:24.095Z,33.13
2023-01-19T19:59:26.613Z,31.20
2023-01-19T20:04:29.273Z,30.70
2023-01-19T20:09:32.879Z,29.83
2023-01-19T20:14:35.429Z,29.58
2023-01-19T20:19:38.112Z,28.67
2023-01-19T20:24:40.792Z,28.45
2023-01-19T20:29:43.481Z,30.98
2023-01-19T20:34:46.098Z,34.63
2023-01-19T20:39:48.941Z,29.77
2023-01-19T20:44:51.976Z,28.10
2023-01-19T20:49:54.618Z,30.17
2023-01-19T20:54:57.232Z,31.27
2023-01-19T20:59:59.839Z,31.67
2023-01-19T21:05:02.533Z,33.92
2023-01-19T21:10:05.899Z,35.95
2023-01-19T21:15:09.253Z,35.30
2023-01-19T21:20:12.220Z,36.72
2023-01-19T21:25:15.064Z,35.72
2023-01-19T21:30:18.916Z,36.20
2023-01-19T21:35:21.741Z,37.88
2023-01-19T21:40:24.271Z,37.05
2023-01-19T21:45:26.845Z,36.33
2023-01-19T21:50:29.439Z,36.05
2023-01-19T21:55:32.526Z,36.08
2023-01-19T22:00:35.134Z,37.33
2023-01-19T22:05:37.891Z,34.67
2023-01-19T22:10:40.413Z,35.42
2023-01-19T22:15:42.946Z,36.33
2023-01-19T22:20:45.477Z,36.10
2023-01-19T22:25:47.985Z,36.08
2023-01-19T22:30:50.724Z,34.42
2023-01-19T22:35:53.359Z,35.45
2023-01-19T22:40:56.157Z,34.75
2023-01-19T22:45:59.164Z,35.60
2023-01-19T22:51:01.804Z,34.70
2023-01-19T22:56:18.446Z,34.40
2023-01-19T23:01:29.173Z,33.60
2023-01-19T23:06:34.722Z,35.35
2023-01-19T23:11:40.430Z,33.88
2023-01-19T23:16:43.068Z,35.35
2023-01-19T23:21:45.886Z,34.85
2023-01-19T23:26:51.285Z,35.33
2023-01-19T23:31:56.044Z,34.30
2023-01-19T23:36:58.572Z,31.17
2023-01-19T23:42:01.171Z,33.58
2023-01-19T23:47:03.682Z,35.17
2023-01-19T23:52:06.218Z,32.75
2023-01-19T23:57:08.738Z,33.78
